createdAt,value
2018-10-19T00:04:33.133Z,95.13
2018-10-19T00:09:37.558Z,100.23
2018-10-19T00:14:41.919Z,97.47
2018-10-19T00:19:46.422Z,110.10
2018-10-19T00:24:50.730Z,101.43
2018-10-19T00:29:54.927Z,102.43
2018-10-19T00:34:59.267Z,106.23
2018-10-19T00:40:03.373Z,106.87
2018-10-19T00:45:07.662Z,104.30
2018-10-19T00:50:11.880Z,106.67
2018-10-19T00:55:16.088Z,107.23
2018-10-19T01:00:20.261Z,108.80
2018-10-19T01:05:24.302Z,118.03
2018-10-19T01:10:28.513Z,108.63
2018-10-19T01:15:32.598Z,112.73
2018-10-19T01:20:36.687Z,105.23
2018-10-19T01:25:41.445Z,113.50
2018-10-19T01:30:45.683Z,115.10
2018-10-19T01:35:49.743Z,107.40
2018-10-19T01:40:53.933Z,111.90
2018-10-19T01:45:58.708Z,112.70
2018-10-19T01:51:02.814Z,116.30
2018-10-19T01:56:06.932Z,114.90
2018-10-19T02:01:11.092Z,114.33
2018-10-19T02:06:15.268Z,128.47
2018-10-19T02:11:19.736Z,119.83
2018-10-19T02:16:23.922Z,117.63
2018-10-19T02:21:27.980Z,116.93
2018-10-19T02:26:32.177Z,120.60
2018-10-19T02:31:36.399Z,118.17
2018-10-19T02:36:40.562Z,114.77
2018-10-19T02:41:44.734Z,118.23
2018-10-19T02:46:48.864Z,116.30
2018-10-19T02:51:52.942Z,119.13
2018-10-19T02:56:57.031Z,114.57
2018-10-19T03:02:01.240Z,117.20
2018-10-19T03:07:06.001Z,123.87
2018-10-19T03:12:10.108Z,109.27
2018-10-19T03:17:13.881Z,120.53
2018-10-19T03:22:17.828Z,125.40
2018-10-19T03:27:21.953Z,123.07
2018-10-19T03:32:26.047Z,124.73
2018-10-19T03:37:30.433Z,118.33
2018-10-19T03:42:34.514Z,126.83
2018-10-19T03:47:38.613Z,155.37
2018-10-19T03:52:42.683Z,128.63
2018-10-19T03:57:46.769Z,122.17
2018-10-19T04:02:50.804Z,124.33
2018-10-19T04:07:54.905Z,117.37
2018-10-19T04:12:59.004Z,124.77
2018-10-19T04:18:03.131Z,120.63
2018-10-19T04:23:08.455Z,118.47
2018-10-19T04:28:12.506Z,130.57
2018-10-19T04:33:16.656Z,125.60
2018-10-19T04:38:20.692Z,130.87
2018-10-19T04:43:24.755Z,121.10
2018-10-19T04:48:28.912Z,130.67
2018-10-19T04:53:32.956Z,126.67
2018-10-19T04:58:36.997Z,127.43
2018-10-19T05:03:41.091Z,127.10
2018-10-19T05:08:45.220Z,125.70
2018-10-19T05:13:49.313Z,123.47
2018-10-19T05:18:53.378Z,127.57
2018-10-19T05:23:57.494Z,123.97
2018-10-19T05:29:01.739Z,132.80
2018-10-19T05:34:05.827Z,126.40
2018-10-19T05:39:10.233Z,133.33
2018-10-19T05:44:14.043Z,147.40
2018-10-19T05:49:18.146Z,140.47
2018-10-19T05:54:22.291Z,133.07
2018-10-19T05:59:26.387Z,147.00
2018-10-19T06:04:30.485Z,137.23
2018-10-19T06:09:34.658Z,124.40
2018-10-19T06:14:38.422Z,127.47
2018-10-19T06:19:42.436Z,128.50
2018-10-19T06:24:46.508Z,127.20
2018-10-19T06:29:50.572Z,131.17
2018-10-19T06:34:54.665Z,135.03
2018-10-19T06:39:58.436Z,129.57
2018-10-19T06:45:02.127Z,138.43
2018-10-19T06:50:08.224Z,126.33
2018-10-19T06:55:15.506Z,123.53
2018-10-19T07:00:19.545Z,110.10
2018-10-19T07:05:23.581Z,111.93
2018-10-19T07:10:27.645Z,114.80
2018-10-19T07:15:31.661Z,118.47
2018-10-19T07:20:35.709Z,111.50
2018-10-19T07:25:39.750Z,104.13
2018-10-19T07:30:43.756Z,92.43
2018-10-19T07:35:47.766Z,88.77
2018-10-19T07:40:51.816Z,90.47
2018-10-19T07:45:55.880Z,82.00
2018-10-19T07:50:59.974Z,85.57
2018-10-19T07:56:04.348Z,83.93
2018-10-19T08:01:08.393Z,81.23
2018-10-19T08:06:12.385Z,77.63
2018-10-19T08:11:16.504Z,86.37
2018-10-19T08:16:20.439Z,84.13
2018-10-19T08:21:24.458Z,81.53
2018-10-19T08:26:28.526Z,83.47
2018-10-19T08:31:32.611Z,81.50
2018-10-19T08:36:36.649Z,84.40
2018-10-19T08:41:40.767Z,84.90
2018-10-19T08:46:52.293Z,89.83
2018-10-19T08:51:56.321Z,82.57
2018-10-19T08:57:00.377Z,92.20
2018-10-19T09:02:04.545Z,87.33
2018-10-19T09:07:08.504Z,89.03
2018-10-19T09:12:12.560Z,83.50
2018-10-19T09:17:16.638Z,83.20
2018-10-19T09:22:21.046Z,92.53
2018-10-19T09:27:25.068Z,78.60
2018-10-19T09:32:29.806Z,78.93
2018-10-19T09:37:33.872Z,75.87
2018-10-19T09:42:37.865Z,81.03
2018-10-19T09:47:41.885Z,80.80
2018-10-19T09:52:45.933Z,74.07
2018-10-19T09:57:49.967Z,73.07
2018-10-19T10:02:54.145Z,71.83
2018-10-19T10:07:58.241Z,76.97
2018-10-19T10:13:02.223Z,70.00
2018-10-19T10:18:06.357Z,67.33
2018-10-19T10:23:10.388Z,63.77
2018-10-19T10:28:14.494Z,63.20
2018-10-19T10:33:18.492Z,59.07
2018-10-19T10:38:22.499Z,58.50
2018-10-19T10:43:26.485Z,57.37
2018-10-19T10:48:30.594Z,53.30
2018-10-19T10:53:34.622Z,52.08
2018-10-19T10:58:38.676Z,50.03
2018-10-19T11:03:42.743Z,46.60
2018-10-19T11:08:46.817Z,49.08
2018-10-19T11:13:50.781Z,49.35
2018-10-19T11:18:54.820Z,49.40
2018-10-19T11:23:58.937Z,46.70
2018-10-19T11:29:02.991Z,46.63
2018-10-19T11:34:07.057Z,44.83
2018-10-19T11:39:11.424Z,45.52
2018-10-19T11:44:15.469Z,40.83
2018-10-19T11:49:19.624Z,45.50
2018-10-19T11:54:23.535Z,45.33
2018-10-19T11:59:27.612Z,51.20
2018-10-19T12:04:31.629Z,51.05
2018-10-19T12:09:35.688Z,53.33
2018-10-19T12:14:39.698Z,49.23
2018-10-19T12:19:43.874Z,42.62
2018-10-19T12:24:48.081Z,42.67
2018-10-19T12:29:52.141Z,39.92
2018-10-19T12:34:56.168Z,42.08
2018-10-19T12:40:00.232Z,39.50
2018-10-19T12:45:04.500Z,42.10
2018-10-19T12:50:08.738Z,31.55
2018-10-19T12:55:12.853Z,39.83
2018-10-19T13:00:16.913Z,37.28
2018-10-19T13:05:21.016Z,36.90
2018-10-19T13:10:25.229Z,36.25
2018-10-19T13:15:29.339Z,40.10
2018-10-19T13:20:33.321Z,38.92
2018-10-19T13:25:37.904Z,39.60
2018-10-19T13:30:42.146Z,38.75
2018-10-19T13:35:46.275Z,41.63
2018-10-19T13:40:50.985Z,34.73
2018-10-19T13:45:55.564Z,38.70
2018-10-19T13:51:00.818Z,39.87
2018-10-19T13:56:05.860Z,40.23
2018-10-19T14:01:11.246Z,37.43
2018-10-19T14:06:16.967Z,38.60
2018-10-19T14:11:22.024Z,40.00
2018-10-19T14:16:27.545Z,43.67
2018-10-19T14:21:31.691Z,37.60
2018-10-19T14:26:35.969Z,37.67
2018-10-19T14:31:40.040Z,40.93
2018-10-19T14:36:45.209Z,39.30
2018-10-19T14:41:50.427Z,47.07
2018-10-19T14:46:56.181Z,40.03
2018-10-19T14:52:01.449Z,39.90
2018-10-19T14:57:07.391Z,39.65
2018-10-19T15:02:12.735Z,40.23
2018-10-19T15:07:18.327Z,39.20
2018-10-19T15:12:22.374Z,38.70
2018-10-19T15:17:27.579Z,49.00
2018-10-19T15:22:33.333Z,47.27
2018-10-19T15:27:37.927Z,49.20
2018-10-19T15:32:43.731Z,47.03
2018-10-19T15:37:48.740Z,53.50
2018-10-19T15:42:55.916Z,53.40
2018-10-19T15:48:02.655Z,68.33
2018-10-19T15:53:13.290Z,70.67
2018-10-19T15:58:25.542Z,70.03
2018-10-19T16:03:34.397Z,69.60
2018-10-19T16:08:41.027Z,73.83
2018-10-19T16:13:47.005Z,74.80
2018-10-19T16:18:53.471Z,83.13
2018-10-19T16:23:58.915Z,84.87
2018-10-19T16:29:04.094Z,78.50
2018-10-19T16:34:09.591Z,80.17
2018-10-19T16:39:16.483Z,82.17
2018-10-19T16:44:21.758Z,89.47
2018-10-19T16:49:26.117Z,85.37
2018-10-19T16:54:31.223Z,86.30
2018-10-19T16:59:36.165Z,94.20
2018-10-19T17:04:40.702Z,93.93
2018-10-19T17:09:45.335Z,96.70
2018-10-19T17:14:49.467Z,94.80
2018-10-19T17:19:53.963Z,103.00
2018-10-19T17:24:59.444Z,114.63
2018-10-19T17:30:04.942Z,136.67
2018-10-19T17:35:10.984Z,107.63
2018-10-19T17:40:16.584Z,118.37
2018-10-19T17:45:21.057Z,104.80
2018-10-19T17:50:26.124Z,109.33
2018-10-19T17:55:31.841Z,110.60
2018-10-19T18:00:38.724Z,92.57
2018-10-19T18:05:44.116Z,97.87
2018-10-19T18:10:49.726Z,103.40
2018-10-19T18:15:53.428Z,110.20
2018-10-19T18:20:57.429Z,127.40
2018-10-19T18:26:01.646Z,119.13
2018-10-19T18:31:05.918Z,117.57
2018-10-19T18:36:09.672Z,109.00
2018-10-19T18:41:13.712Z,129.03
2018-10-19T18:46:17.715Z,122.57
2018-10-19T18:51:21.473Z,118.23
2018-10-19T18:56:25.342Z,109.60
2018-10-19T19:01:31.542Z,105.13
2018-10-19T19:06:36.932Z,107.17
2018-10-19T19:11:43.140Z,99.47
2018-10-19T19:16:48.019Z,102.80
2018-10-19T19:21:53.674Z,103.17
2018-10-19T19:26:59.644Z,110.97
2018-10-19T19:32:07.188Z,112.90
2018-10-19T19:37:11.324Z,113.37
2018-10-19T19:42:22.000Z,108.33
2018-10-19T19:47:32.590Z,117.60
2018-10-19T19:52:38.177Z,118.57
2018-10-19T19:57:44.077Z,113.80
2018-10-19T20:02:50.516Z,113.23
2018-10-19T20:07:57.404Z,113.33
2018-10-19T20:13:02.992Z,112.07
2018-10-19T20:18:07.091Z,114.67
2018-10-19T20:23:11.620Z,102.80
2018-10-19T20:28:17.657Z,109.47
2018-10-19T20:33:23.363Z,111.30
2018-10-19T20:38:29.651Z,109.27
2018-10-19T20:43:35.141Z,109.90
2018-10-19T20:48:41.453Z,106.63
2018-10-19T20:53:47.688Z,111.03
2018-10-19T20:58:51.806Z,112.73
2018-10-19T21:03:55.791Z,116.37
2018-10-19T21:09:00.012Z,113.10
2018-10-19T21:14:04.627Z,122.77
2018-10-19T21:19:08.911Z,125.97
2018-10-19T21:24:12.934Z,124.47
2018-10-19T21:29:17.227Z,116.17
2018-10-19T21:34:21.301Z,129.37
2018-10-19T21:39:25.116Z,134.47
2018-10-19T21:44:28.914Z,115.60
2018-10-19T21:49:33.120Z,123.23
2018-10-19T21:54:37.147Z,111.17
2018-10-19T21:59:40.843Z,114.33
2018-10-19T22:04:44.857Z,108.87
2018-10-19T22:09:49.063Z,115.80
2018-10-19T22:14:53.628Z,122.23
2018-10-19T22:19:57.901Z,119.90
2018-10-19T22:25:02.251Z,128.87
2018-10-19T22:30:08.429Z,120.23
2018-10-19T22:35:13.185Z,119.73
2018-10-19T22:40:18.068Z,113.23
2018-10-19T22:45:22.242Z,105.10
2018-10-19T22:50:26.464Z,105.60
2018-10-19T22:55:30.628Z,117.10
2018-10-19T23:00:34.753Z,110.17
2018-10-19T23:05:39.017Z,114.80
2018-10-19T23:10:42.858Z,123.60
2018-10-19T23:15:46.588Z,132.47
2018-10-19T23:20:50.704Z,125.30
2018-10-19T23:25:54.461Z,118.90
2018-10-19T23:30:58.544Z,119.17
2018-10-19T23:36:02.418Z,117.90
2018-10-19T23:41:06.496Z,127.73
2018-10-19T23:46:10.738Z,119.70
2018-10-19T23:51:15.577Z,118.30
2018-10-19T23:56:19.598Z,120.53
